.
WxDataArchive / Data Records for 2012-11-22
2012-11-21 November 2012 2012-11-23

Data Records for Thursday, 22 November 2012

Time	Temp	Chill	HIndex	Humid	Dewpt	 Wind 	HiWind	WindDir	Rain 	Barom 
-----	----	-----	------	-----	-----	------	------	-------	-----	----- 
00:00	34.7	34.7	34.7	93	32.9	0	0	---	0.00	30.191 
00:05	34.7	34.7	34.7	93	32.9	0	0	---	0.00	30.191 
00:10	34.7	34.7	34.7	93	32.9	0	0	---	0.00	30.191 
00:15	34.6	34.6	34.6	93	32.8	0	0	---	0.00	30.189 
00:20	34.4	34.4	34.4	93	32.6	0	0	---	0.00	30.189 
00:25	34.4	34.4	34.4	93	32.6	0	0	---	0.00	30.189 
00:30	34.3	34.3	34.3	93	32.5	0	0	---	0.00	30.191 
00:35	34.3	34.3	34.3	93	32.5	0	0	---	0.00	30.191 
00:40	34.1	34.1	34.1	93	32.3	0	0	---	0.00	30.191 
00:45	34.0	34.0	34.0	93	32.2	0	0	---	0.00	30.190 
00:50	34.0	34.0	34.0	93	32.2	0	0	---	0.00	30.190 
00:55	33.8	33.8	33.8	93	32.0	0	0	---	0.00	30.190 
01:00	33.8	33.8	33.8	93	32.0	0	0	---	0.00	30.184 
01:05	33.7	33.7	33.7	93	31.9	0	0	---	0.00	30.184 
01:10	33.7	33.7	33.7	93	31.9	0	0	---	0.00	30.184 
01:15	33.5	33.5	33.5	93	31.7	0	0	---	0.00	30.176 
01:20	33.4	33.4	33.4	93	31.6	0	0	---	0.00	30.176 
01:25	33.4	33.4	33.4	93	31.6	0	0	---	0.00	30.176 
01:30	33.2	33.2	33.2	93	31.4	0	0	---	0.00	30.176 
01:35	33.2	33.2	33.2	93	31.4	0	0	---	0.00	30.176 
01:40	33.2	33.2	33.2	93	31.4	0	0	---	0.00	30.176 
01:45	33.2	33.2	33.2	93	31.4	0	0	---	0.00	30.174 
01:50	33.1	33.1	33.1	93	31.3	0	0	---	0.00	30.174 
01:55	33.1	33.1	33.1	93	31.3	0	0	---	0.00	30.174 
02:00	32.9	32.9	32.9	93	31.1	0	0	---	0.00	30.171 
02:05	32.9	32.9	32.9	94	31.4	0	0	---	0.00	30.171 
02:10	33.1	33.1	33.1	94	31.6	0	0	---	0.00	30.171 
02:15	33.1	33.1	33.1	94	31.6	0	0	---	0.00	30.171 
02:20	33.1	33.1	33.1	94	31.6	0	0	---	0.00	30.171 
02:25	33.2	33.2	33.2	94	31.7	0	0	---	0.00	30.171 
02:30	33.4	33.4	33.4	94	31.9	0	0	---	0.00	30.168 
02:35	33.4	33.4	33.4	94	31.9	0	0	---	0.00	30.168 
02:40	33.2	33.2	33.2	94	31.7	0	0	---	0.00	30.168 
02:45	33.1	33.1	33.1	94	31.6	0	0	---	0.00	30.165 
02:50	33.1	33.1	33.1	94	31.6	0	0	---	0.00	30.165 
02:55	33.2	33.2	33.2	94	31.7	0	0	---	0.00	30.165 
03:00	33.2	33.2	33.2	94	31.7	0	0	---	0.00	30.165 
03:05	33.2	33.2	33.2	94	31.7	0	0	---	0.00	30.165 
03:10	33.4	33.4	33.4	94	31.9	0	0	---	0.00	30.165 
03:15	33.4	33.4	33.4	94	31.9	0	0	---	0.00	30.160 
03:20	33.4	33.4	33.4	94	31.9	0	0	---	0.00	30.160 
03:25	33.4	33.4	33.4	94	31.9	0	0	---	0.00	30.160 
03:30	33.4	33.4	33.4	94	31.9	0	0	---	0.00	30.158 
03:35	33.7	33.7	33.7	94	32.2	0	0	---	0.00	30.158 
03:40	33.8	33.8	33.8	94	32.3	0	0	---	0.00	30.158 
03:45	34.4	34.4	34.4	95	33.1	0	0	---	0.00	30.156 
03:50	34.9	34.9	34.9	95	33.6	0	0	---	0.00	30.156 
03:55	35.2	35.2	35.2	95	33.9	0	0	---	0.00	30.156 
04:00	35.2	35.2	35.2	95	33.9	0	0	---	0.00	30.152 
04:05	35.2	35.2	35.2	95	33.9	0	0	---	0.00	30.152 
04:10	35.2	35.2	35.2	94	33.6	0	0	---	0.00	30.152 
04:15	35.2	35.2	35.2	95	33.9	0	0	---	0.00	30.154 
04:20	35.0	35.0	35.0	95	33.7	0	0	---	0.00	30.154 
04:25	35.2	35.2	35.2	95	33.9	0	0	---	0.00	30.154 
04:30	35.3	35.3	35.3	95	34.0	0	0	---	0.00	30.150 
04:35	35.6	35.6	35.6	95	34.3	0	0	---	0.00	30.150 
04:40	36.0	36.0	36.0	95	34.7	0	0	---	0.00	30.150 
04:45	36.6	36.6	36.6	95	35.3	0	0	---	0.00	30.147 
04:50	37.2	37.2	37.2	95	35.9	0	0	---	0.00	30.147 
04:55	37.5	37.5	37.5	95	36.2	0	0	---	0.00	30.147 
05:00	37.6	37.6	37.6	95	36.3	0	0	---	0.00	30.147 
05:05	37.6	37.6	37.6	95	36.3	0	0	---	0.00	30.147 
05:10	37.8	37.8	37.8	95	36.5	0	0	---	0.00	30.147 
05:15	37.8	37.8	37.8	95	36.5	0	0	---	0.00	30.152 
05:20	37.8	37.8	37.8	95	36.5	0	0	---	0.00	30.152 
05:25	37.8	37.8	37.8	95	36.5	0	0	---	0.00	30.152 
05:30	37.8	37.8	37.8	95	36.5	0	0	---	0.00	30.150 
05:35	37.9	37.9	37.9	95	36.6	0	0	---	0.00	30.150 
05:40	38.0	38.0	38.0	95	36.7	0	0	---	0.00	30.150 
05:45	38.0	38.0	38.0	95	36.7	0	0	---	0.00	30.152 
05:50	38.0	38.0	38.0	95	36.7	0	0	---	0.00	30.152 
05:55	37.9	37.9	37.9	95	36.6	0	0	---	0.00	30.152 
06:00	37.8	37.8	37.8	95	36.5	0	0	---	0.00	30.148 
06:05	37.8	37.8	37.8	95	36.5	0	0	---	0.00	30.148 
06:10	37.9	37.9	37.9	95	36.6	0	0	---	0.00	30.148 
06:15	38.0	38.0	38.0	95	36.7	0	0	---	0.00	30.151 
06:20	38.0	38.0	38.0	95	36.7	0	0	---	0.00	30.151 
06:25	38.0	38.0	38.0	95	36.7	0	0	---	0.00	30.151 
06:30	38.2	38.2	38.2	95	36.9	0	0	---	0.00	30.150 
06:35	38.3	38.3	38.3	95	37.0	0	0	---	0.00	30.150 
06:40	38.5	38.5	38.5	96	37.5	0	0	---	0.00	30.150 
06:45	38.5	38.5	38.5	96	37.5	0	0	---	0.00	30.147 
06:50	38.5	38.5	38.5	96	37.5	0	0	---	0.00	30.147 
06:55	38.6	38.6	38.6	96	37.6	0	0	---	0.00	30.147 
07:00	38.8	38.8	38.8	96	37.8	0	0	---	0.00	30.145 
07:05	38.8	38.8	38.8	95	37.5	0	0	---	0.00	30.145 
07:10	38.6	38.6	38.6	96	37.6	0	0	---	0.00	30.145 
07:15	38.6	38.6	38.6	96	37.6	0	0	---	0.00	30.141 
07:20	38.6	38.6	38.6	96	37.6	0	0	---	0.00	30.141 
07:25	38.8	38.8	38.8	96	37.8	0	0	---	0.00	30.141 
07:30	38.9	38.9	38.9	96	37.9	0	1	248	0.00	30.145 
07:35	39.1	39.1	39.1	96	38.1	0	0	---	0.00	30.145 
07:40	39.1	39.1	39.1	96	38.1	0	0	---	0.00	30.145 
07:45	38.9	38.9	38.9	96	37.9	0	0	---	0.00	30.144 
07:50	38.8	38.8	38.8	96	37.8	0	0	---	0.00	30.144 
07:55	38.6	38.6	38.6	95	37.3	0	0	---	0.00	30.144 
08:00	38.8	38.8	38.8	96	37.8	0	1	248	0.00	30.148 
08:05	38.9	38.9	38.9	96	37.9	0	0	---	0.00	30.148 
08:10	39.1	39.1	39.1	96	38.1	0	0	---	0.00	30.148 
08:15	39.5	39.5	39.5	96	38.5	0	0	---	0.00	30.151 
08:20	39.8	39.8	39.8	96	38.8	0	0	---	0.00	30.151 
08:25	40.2	40.2	40.2	96	39.2	0	0	---	0.00	30.151 
08:30	40.3	40.3	40.3	96	39.3	0	1	248	0.00	30.151 
08:35	40.5	40.5	40.5	96	39.5	0	0	---	0.00	30.151 
08:40	40.6	40.6	40.6	96	39.5	0	0	---	0.00	30.151 
08:45	40.8	40.8	40.8	96	39.7	0	0	---	0.00	30.150 
08:50	40.9	40.9	40.9	96	39.8	0	1	248	0.00	30.150 
08:55	41.2	41.2	41.2	96	40.1	0	2	248	0.00	30.150 
09:00	41.6	41.6	41.6	96	40.5	0	1	248	0.00	30.148 
09:05	42.1	42.1	42.1	96	41.0	0	1	248	0.00	30.148 
09:10	42.6	42.6	42.6	96	41.5	0	1	248	0.00	30.148 
09:15	43.2	43.2	43.2	96	42.1	0	3	248	0.00	30.146 
09:20	43.8	43.8	43.8	96	42.7	0	1	248	0.00	30.146 
09:25	44.3	44.3	44.3	96	43.2	0	1	248	0.00	30.146 
09:30	44.9	44.9	44.9	96	43.8	0	1	248	0.00	30.139 
09:35	45.2	45.2	45.2	96	44.1	0	2	248	0.00	30.139 
09:40	45.5	45.5	45.5	96	44.4	0	2	248	0.00	30.139 
09:45	45.8	45.8	45.8	96	44.7	1	3	248	0.00	30.133 
09:50	46.1	46.1	46.1	96	45.0	1	4	248	0.00	30.133 
09:55	46.5	46.5	46.5	95	45.1	0	4	248	0.00	30.133 
10:00	47.0	47.0	47.0	95	45.6	1	3	248	0.00	30.129 
10:05	47.6	47.6	47.6	94	46.0	1	4	248	0.00	30.129 
10:10	48.0	48.0	48.0	93	46.1	0	2	248	0.00	30.129 
10:15	48.6	48.6	48.6	92	46.4	1	3	248	0.00	30.126 
10:20	49.2	49.2	49.2	90	46.4	1	6	248	0.00	30.126 
10:25	49.6	49.6	49.6	88	46.2	1	3	248	0.00	30.126 
10:30	50.2	50.2	50.2	85	45.9	1	2	270	0.00	30.118 
10:35	50.8	50.8	50.8	83	45.8	1	6	248	0.00	30.118 
10:40	51.3	51.3	51.3	81	45.7	1	5	270	0.00	30.118 
10:45	51.9	51.9	51.9	80	45.9	1	3	248	0.00	30.113 
10:50	52.5	52.5	52.5	78	45.8	1	3	68	0.00	30.113 
10:55	52.9	52.9	52.9	76	45.5	1	5	248	0.00	30.113 
11:00	53.5	53.5	53.5	74	45.4	1	4	248	0.00	30.110 
11:05	53.9	53.9	53.9	73	45.4	2	6	248	0.00	30.110 
11:10	54.5	54.5	54.5	71	45.3	1	9	90	0.00	30.110 
11:15	54.8	54.8	54.8	70	45.2	1	6	225	0.00	30.102 
11:20	55.0	55.0	55.0	68	44.6	2	6	248	0.00	30.102 
11:25	55.1	55.1	55.1	68	44.7	1	6	248	0.00	30.102 
11:30	55.4	55.4	55.4	68	45.0	1	5	248	0.00	30.093 
11:35	55.9	55.9	55.9	69	45.9	0	3	270	0.00	30.093 
11:40	56.2	56.2	56.2	67	45.4	1	4	270	0.00	30.093 
11:45	56.6	56.6	56.6	67	45.8	1	3	270	0.00	30.087 
11:50	56.6	56.6	56.6	65	45.0	2	5	248	0.00	30.087 
11:55	56.7	56.7	56.7	65	45.1	2	6	248	0.00	30.087 
12:00	56.9	56.9	56.9	64	44.8	3	7	248	0.00	30.075 
12:05	57.2	57.2	57.2	63	44.7	2	7	248	0.00	30.075 
12:10	57.3	57.3	57.3	62	44.4	3	9	248	0.00	30.075 
12:15	57.5	57.5	57.5	62	44.6	1	5	248	0.00	30.071 
12:20	57.8	57.8	57.8	62	44.9	2	9	248	0.00	30.071 
12:25	58.1	58.1	58.1	61	44.7	2	7	248	0.00	30.071 
12:30	58.4	58.4	58.4	60	44.6	2	6	248	0.00	30.062 
12:35	58.7	58.7	58.7	58	44.0	3	11	248	0.00	30.062 
12:40	58.9	58.9	58.9	57	43.7	3	10	248	0.00	30.062 
12:45	59.0	59.0	59.0	56	43.3	3	9	248	0.00	30.059 
12:50	59.2	59.2	59.2	57	44.0	2	6	248	0.00	30.059 
12:55	59.2	59.2	59.2	56	43.5	3	8	248	0.00	30.059 
13:00	59.2	59.2	59.2	57	44.0	2	6	248	0.00	30.046 
13:05	59.3	59.3	59.3	56	43.6	2	10	248	0.00	30.046 
13:10	59.3	59.3	59.3	55	43.1	3	10	248	0.00	30.046 
13:15	59.3	59.3	59.3	54	42.7	4	9	248	0.00	30.044 
13:20	59.5	59.5	59.5	54	42.8	2	9	248	0.00	30.044 
13:25	59.6	59.6	59.6	54	42.9	3	9	248	0.00	30.044 
13:30	59.8	59.8	59.8	54	43.1	2	6	248	0.00	30.039 
13:35	59.9	59.9	59.9	54	43.2	2	6	248	0.00	30.039 
13:40	60.1	60.1	60.1	53	42.9	3	12	248	0.00	30.039 
13:45	60.2	60.2	60.2	52	42.5	2	7	248	0.00	30.031 
13:50	60.4	60.4	60.4	53	43.2	1	5	248	0.00	30.031 
13:55	60.7	60.7	60.7	52	43.0	1	6	248	0.00	30.031 
14:00	61.0	61.0	61.0	50	42.2	2	9	248	0.00	30.025 
14:05	61.0	61.0	61.0	49	41.7	3	7	248	0.00	30.025 
14:10	60.9	60.9	60.9	49	41.6	2	7	248	0.00	30.025 
14:15	60.7	60.7	60.7	49	41.4	2	7	248	0.00	30.012 
14:20	60.7	60.7	60.7	50	41.9	1	5	45	0.00	30.012 
14:25	60.7	60.7	60.7	48	40.9	2	11	248	0.00	30.012 
14:30	60.7	60.7	60.7	48	40.9	2	7	248	0.00	30.008 
14:35	60.9	60.9	60.9	50	42.1	2	4	45	0.00	30.008 
14:40	61.0	61.0	61.0	50	42.2	2	10	112	0.00	30.008 
14:45	61.0	61.0	61.0	49	41.7	2	11	45	0.00	29.997 
14:50	60.5	60.5	60.5	49	41.2	1	9	248	0.00	29.997 
14:55	60.4	60.4	60.4	48	40.6	2	6	248	0.00	29.997 
15:00	60.1	60.1	60.1	49	40.9	2	7	112	0.00	29.997 
15:05	60.1	60.1	60.1	50	41.4	1	4	270	0.00	29.997 
15:10	60.4	60.4	60.4	49	41.1	1	5	248	0.00	29.997 
15:15	60.7	60.7	60.7	50	41.9	1	5	248	0.00	29.988 
15:20	60.7	60.7	60.7	49	41.4	2	5	248	0.00	29.988 
15:25	60.4	60.4	60.4	49	41.1	1	5	22	0.00	29.988 
15:30	60.1	60.1	60.1	49	40.9	1	6	248	0.00	29.989 
15:35	59.9	59.9	59.9	48	40.2	1	4	248	0.00	29.989 
15:40	60.1	60.1	60.1	49	40.9	1	6	248	0.00	29.989 
15:45	60.1	60.1	60.1	50	41.4	1	3	270	0.00	29.994 
15:50	59.9	59.9	59.9	50	41.2	0	3	248	0.00	29.994 
15:55	59.9	59.9	59.9	50	41.2	1	5	225	0.00	29.994 
16:00	59.9	59.9	59.9	50	41.2	1	4	225	0.00	29.988 
16:05	59.6	59.6	59.6	51	41.4	1	4	45	0.00	29.988 
16:10	59.5	59.5	59.5	51	41.4	1	3	68	0.00	29.988 
16:15	59.2	59.2	59.2	51	41.1	1	3	68	0.00	29.981 
16:20	59.0	59.0	59.0	51	40.9	1	4	45	0.00	29.981 
16:25	58.9	58.9	58.9	51	40.8	0	3	45	0.00	29.981 
16:30	58.7	58.7	58.7	51	40.6	1	2	22	0.00	29.980 
16:35	58.6	58.6	58.6	51	40.5	0	2	22	0.00	29.980 
16:40	58.4	58.4	58.4	51	40.3	1	9	248	0.00	29.980 
16:45	58.3	58.3	58.3	51	40.3	0	2	248	0.00	29.977 
16:50	58.1	58.1	58.1	51	40.1	1	4	90	0.00	29.977 
16:55	58.0	58.0	58.0	52	40.5	0	3	248	0.00	29.977 
17:00	57.6	57.6	57.6	52	40.1	0	2	248	0.00	29.976 
17:05	57.3	57.3	57.3	53	40.3	0	2	248	0.00	29.976 
17:10	57.0	57.0	57.0	54	40.5	1	3	248	0.00	29.976 
17:15	56.7	56.7	56.7	54	40.2	0	2	315	0.00	29.974 
17:20	56.5	56.5	56.5	55	40.5	1	3	315	0.00	29.974 
17:25	56.3	56.3	56.3	56	40.8	0	2	45	0.00	29.974 
17:30	56.2	56.2	56.2	56	40.7	0	3	45	0.00	29.969 
17:35	56.2	56.2	56.2	56	40.7	0	3	90	0.00	29.969 
17:40	56.2	56.2	56.2	56	40.7	1	4	90	0.00	29.969 
17:45	56.0	56.0	56.0	56	40.5	0	2	90	0.00	29.967 
17:50	55.9	55.9	55.9	56	40.4	1	2	90	0.00	29.967 
17:55	55.9	55.9	55.9	57	40.9	0	2	90	0.00	29.967 
18:00	55.9	55.9	55.9	56	40.4	1	3	90	0.00	29.964 
18:05	56.0	56.0	56.0	56	40.5	1	4	45	0.00	29.964 
18:10	56.2	56.2	56.2	56	40.7	1	3	68	0.00	29.964 
18:15	56.2	56.2	56.2	56	40.7	1	3	248	0.00	29.960 
18:20	56.3	56.3	56.3	56	40.8	1	3	45	0.00	29.960 
18:25	56.3	56.3	56.3	56	40.8	1	5	68	0.00	29.960 
18:30	56.3	56.3	56.3	56	40.8	1	4	270	0.00	29.957 
18:35	56.3	56.3	56.3	56	40.8	1	4	90	0.00	29.957 
18:40	56.3	56.3	56.3	56	40.8	1	4	90	0.00	29.957 
18:45	56.3	56.3	56.3	56	40.8	1	5	90	0.00	29.949 
18:50	56.3	56.3	56.3	56	40.8	1	3	68	0.00	29.949 
18:55	56.3	56.3	56.3	56	40.8	1	4	22	0.00	29.949 
19:00	56.3	56.3	56.3	56	40.8	1	4	22	0.00	29.948 
19:05	56.3	56.3	56.3	59	42.2	1	4	248	0.00	29.948 
19:10	55.9	55.9	55.9	63	43.5	1	3	90	0.00	29.948 
19:15	55.3	55.3	55.3	65	43.7	1	4	270	0.00	29.948 
19:20	54.7	54.7	54.7	68	44.3	1	4	45	0.00	29.948 
19:25	54.4	54.4	54.4	69	44.4	1	3	22	0.00	29.948 
19:30	54.2	54.2	54.2	68	43.9	1	3	45	0.00	29.938 
19:35	54.2	54.2	54.2	67	43.5	1	3	45	0.00	29.938 
19:40	54.4	54.4	54.4	67	43.7	1	3	45	0.00	29.938 
19:45	54.5	54.5	54.5	66	43.4	1	3	45	0.00	29.931 
19:50	54.7	54.7	54.7	65	43.2	1	4	90	0.00	29.931 
19:55	54.7	54.7	54.7	65	43.2	1	3	248	0.00	29.931 
20:00	54.8	54.8	54.8	64	42.9	1	5	90	0.00	29.928 
20:05	55.0	55.0	55.0	63	42.6	1	4	292	0.00	29.928 
20:10	55.0	55.0	55.0	63	42.6	1	5	45	0.00	29.928 
20:15	55.1	55.1	55.1	63	42.7	1	4	45	0.00	29.922 
20:20	55.1	55.1	55.1	63	42.7	1	5	338	0.00	29.922 
20:25	55.1	55.1	55.1	62	42.3	1	5	22	0.00	29.922 
20:30	55.1	55.1	55.1	62	42.3	1	4	248	0.00	29.915 
20:35	55.1	55.1	55.1	62	42.3	1	5	292	0.00	29.915 
20:40	55.1	55.1	55.1	61	41.9	2	5	248	0.00	29.915 
20:45	55.1	55.1	55.1	61	41.9	2	6	68	0.00	29.900 
20:50	55.0	55.0	55.0	60	41.4	2	4	45	0.00	29.900 
20:55	55.0	55.0	55.0	59	40.9	2	5	292	0.00	29.900 
21:00	55.1	55.1	55.1	59	41.0	1	5	45	0.00	29.896 
21:05	55.1	55.1	55.1	58	40.6	2	7	270	0.00	29.896 
21:10	55.1	55.1	55.1	58	40.6	1	5	248	0.00	29.896 
21:15	55.1	55.1	55.1	58	40.6	2	6	248	0.00	29.900 
21:20	55.1	55.1	55.1	58	40.6	1	5	248	0.00	29.900 
21:25	55.3	55.3	55.3	57	40.3	2	5	248	0.00	29.900 
21:30	55.1	55.1	55.1	57	40.1	1	6	292	0.00	29.894 
21:35	55.0	55.0	55.0	57	40.0	2	5	248	0.00	29.894 
21:40	55.0	55.0	55.0	57	40.0	1	6	248	0.00	29.894 
21:45	55.0	55.0	55.0	57	40.0	1	4	248	0.00	29.894 
21:50	55.0	55.0	55.0	57	40.0	2	5	225	0.00	29.894 
21:55	55.1	55.1	55.1	56	39.7	2	5	225	0.00	29.894 
22:00	55.3	55.3	55.3	56	39.9	1	9	248	0.00	29.887 
22:05	55.3	55.3	55.3	56	39.9	1	5	225	0.00	29.887 
22:10	55.4	55.4	55.4	56	40.0	1	4	248	0.00	29.887 
22:15	55.4	55.4	55.4	55	39.5	2	6	248	0.00	29.888 
22:20	55.4	55.4	55.4	55	39.5	2	7	248	0.00	29.888 
22:25	55.4	55.4	55.4	55	39.5	1	5	248	0.00	29.888 
22:30	55.4	55.4	55.4	55	39.5	2	6	248	0.00	29.886 
22:35	55.6	55.6	55.6	55	39.7	2	7	248	0.00	29.886 
22:40	55.6	55.6	55.6	55	39.7	2	6	248	0.00	29.886 
22:45	55.6	55.6	55.6	55	39.7	2	5	248	0.00	29.874 
22:50	55.6	55.6	55.6	55	39.7	2	6	248	0.00	29.874 
22:55	55.4	55.4	55.4	55	39.5	2	11	248	0.00	29.874 
23:00	55.6	55.6	55.6	55	39.7	2	6	248	0.00	29.867 
23:05	55.6	55.6	55.6	55	39.7	2	10	248	0.00	29.867 
23:10	55.4	55.4	55.4	55	39.5	1	5	248	0.00	29.867 
23:15	55.4	55.4	55.4	55	39.5	2	6	248	0.00	29.856 
23:20	55.6	55.6	55.6	55	39.7	2	6	248	0.00	29.856 
23:25	55.7	55.7	55.7	55	39.8	2	5	248	0.00	29.856 
23:30	55.9	55.9	55.9	54	39.5	2	10	225	0.00	29.851 
23:35	56.0	56.0	56.0	55	40.1	3	9	248	0.00	29.851 
23:40	56.2	56.2	56.2	54	39.8	2	6	248	0.00	29.851 
23:45	56.2	56.2	56.2	54	39.8	2	9	248	0.00	29.839 
23:50	56.2	56.2	56.2	54	39.8	3	10	248	0.00	29.839 
23:55	56.2	56.2	56.2	54	39.8	3	10	248	0.00	29.839 

CoCoRaHS
IN-AL-39
A2 Web Hosting
Creative Commons License
GoDaddy
search engine by freefind advanced

loaded 2018-11-22 06:08:22 • last modified 2010-11-18 10:43:29
Privacy PolicyDisclaimer
• wx.awcolley.com is powered by PmWiki v.2002016 •
• all content (unless otherwise noted) © 2018 A W Colley